sensor_id;sensor_type;location;lat;lon;timestamp;P1;durP1;ratioP1;P2;durP2;ratioP2
48629;SDS011;34426;52.180;4.462;2023-04-26T00:00:19;7.07;;;1.80;;
48629;SDS011;34426;52.180;4.462;2023-04-26T00:02:44;17.45;;;2.08;;
48629;SDS011;34426;52.180;4.462;2023-04-26T00:05:10;12.32;;;2.15;;
48629;SDS011;34426;52.180;4.462;2023-04-26T00:07:36;15.30;;;3.22;;
48629;SDS011;34426;52.180;4.462;2023-04-26T00:10:03;9.95;;;2.70;;
48629;SDS011;34426;52.180;4.462;2023-04-26T00:12:29;9.82;;;2.50;;
48629;SDS011;34426;52.180;4.462;2023-04-26T00:14:54;14.98;;;2.38;;
48629;SDS011;34426;52.180;4.462;2023-04-26T00:17:20;5.57;;;2.40;;
48629;SDS011;34426;52.180;4.462;2023-04-26T00:19:47;11.02;;;2.10;;
48629;SDS011;34426;52.180;4.462;2023-04-26T00:22:13;12.68;;;2.30;;
48629;SDS011;34426;52.180;4.462;2023-04-26T00:24:39;6.18;;;1.98;;
48629;SDS011;34426;52.180;4.462;2023-04-26T00:27:08;10.88;;;2.25;;
48629;SDS011;34426;52.180;4.462;2023-04-26T00:29:33;9.75;;;2.17;;
48629;SDS011;34426;52.180;4.462;2023-04-26T00:31:59;9.73;;;1.83;;
48629;SDS011;34426;52.180;4.462;2023-04-26T00:34:30;6.70;;;1.77;;
48629;SDS011;34426;52.180;4.462;2023-04-26T00:36:58;9.30;;;1.98;;
48629;SDS011;34426;52.180;4.462;2023-04-26T00:39:26;10.50;;;2.50;;
48629;SDS011;34426;52.180;4.462;2023-04-26T00:41:55;10.75;;;2.25;;
48629;SDS011;34426;52.180;4.462;2023-04-26T00:44:23;16.25;;;2.83;;
48629;SDS011;34426;52.180;4.462;2023-04-26T00:46:51;8.05;;;2.72;;
48629;SDS011;34426;52.180;4.462;2023-04-26T00:49:18;12.07;;;2.65;;
48629;SDS011;34426;52.180;4.462;2023-04-26T00:51:47;15.27;;;2.42;;
48629;SDS011;34426;52.180;4.462;2023-04-26T00:54:14;8.52;;;2.10;;
48629;SDS011;34426;52.180;4.462;2023-04-26T00:56:43;9.43;;;2.22;;
48629;SDS011;34426;52.180;4.462;2023-04-26T00:59:09;8.18;;;3.03;;
48629;SDS011;34426;52.180;4.462;2023-04-26T01:01:36;12.05;;;2.10;;
48629;SDS011;34426;52.180;4.462;2023-04-26T01:04:04;10.20;;;2.33;;
48629;SDS011;34426;52.180;4.462;2023-04-26T01:06:32;10.35;;;2.50;;
48629;SDS011;34426;52.180;4.462;2023-04-26T01:08:58;12.65;;;2.58;;
48629;SDS011;34426;52.180;4.462;2023-04-26T01:11:31;7.03;;;2.20;;
48629;SDS011;34426;52.180;4.462;2023-04-26T01:13:57;18.48;;;3.15;;
48629;SDS011;34426;52.180;4.462;2023-04-26T01:16:23;21.08;;;3.22;;
48629;SDS011;34426;52.180;4.462;2023-04-26T01:18:51;7.68;;;2.60;;
48629;SDS011;34426;52.180;4.462;2023-04-26T01:21:18;13.55;;;2.67;;
48629;SDS011;34426;52.180;4.462;2023-04-26T01:23:49;15.05;;;2.53;;
48629;SDS011;34426;52.180;4.462;2023-04-26T01:26:15;13.85;;;2.78;;
48629;SDS011;34426;52.180;4.462;2023-04-26T01:28:41;11.00;;;2.78;;
48629;SDS011;34426;52.180;4.462;2023-04-26T01:31:07;14.48;;;3.08;;
48629;SDS011;34426;52.180;4.462;2023-04-26T01:33:36;13.68;;;2.65;;
48629;SDS011;34426;52.180;4.462;2023-04-26T01:36:02;18.58;;;3.55;;
48629;SDS011;34426;52.180;4.462;2023-04-26T01:38:32;5.88;;;2.10;;
48629;SDS011;34426;52.180;4.462;2023-04-26T01:40:59;11.75;;;2.60;;
48629;SDS011;34426;52.180;4.462;2023-04-26T01:43:27;8.93;;;2.65;;
48629;SDS011;34426;52.180;4.462;2023-04-26T01:45:57;10.43;;;2.22;;
48629;SDS011;34426;52.180;4.462;2023-04-26T01:48:25;8.23;;;2.47;;
48629;SDS011;34426;52.180;4.462;2023-04-26T01:50:54;16.10;;;2.35;;
48629;SDS011;34426;52.180;4.462;2023-04-26T01:53:20;10.55;;;2.78;;
48629;SDS011;34426;52.180;4.462;2023-04-26T01:55:46;12.50;;;2.63;;
48629;SDS011;34426;52.180;4.462;2023-04-26T01:58:13;15.43;;;3.05;;
48629;SDS011;34426;52.180;4.462;2023-04-26T02:00:42;6.57;;;2.28;;
48629;SDS011;34426;52.180;4.462;2023-04-26T02:03:07;9.45;;;2.70;;
48629;SDS011;34426;52.180;4.462;2023-04-26T02:05:33;14.95;;;3.15;;
48629;SDS011;34426;52.180;4.462;2023-04-26T02:08:03;8.27;;;3.10;;
48629;SDS011;34426;52.180;4.462;2023-04-26T02:10:32;19.75;;;3.65;;
48629;SDS011;34426;52.180;4.462;2023-04-26T02:12:57;15.40;;;4.57;;
48629;SDS011;34426;52.180;4.462;2023-04-26T02:15:25;10.73;;;3.00;;
48629;SDS011;34426;52.180;4.462;2023-04-26T02:17:50;10.77;;;2.88;;
48629;SDS011;34426;52.180;4.462;2023-04-26T02:20:16;11.98;;;3.15;;
48629;SDS011;34426;52.180;4.462;2023-04-26T02:22:42;8.07;;;2.63;;
48629;SDS011;34426;52.180;4.462;2023-04-26T02:25:07;7.65;;;3.10;;
48629;SDS011;34426;52.180;4.462;2023-04-26T02:27:36;9.70;;;2.83;;
48629;SDS011;34426;52.180;4.462;2023-04-26T02:30:02;16.33;;;2.95;;
48629;SDS011;34426;52.180;4.462;2023-04-26T02:32:30;12.73;;;2.85;;
48629;SDS011;34426;52.180;4.462;2023-04-26T02:34:55;7.80;;;2.22;;
48629;SDS011;34426;52.180;4.462;2023-04-26T02:37:21;15.43;;;3.33;;
48629;SDS011;34426;52.180;4.462;2023-04-26T02:39:48;9.15;;;3.25;;
48629;SDS011;34426;52.180;4.462;2023-04-26T02:42:19;12.73;;;4.28;;
48629;SDS011;34426;52.180;4.462;2023-04-26T02:44:44;9.73;;;2.47;;
48629;SDS011;34426;52.180;4.462;2023-04-26T02:47:10;8.95;;;2.63;;
48629;SDS011;34426;52.180;4.462;2023-04-26T02:49:37;7.40;;;2.65;;
48629;SDS011;34426;52.180;4.462;2023-04-26T02:52:02;8.82;;;3.08;;
48629;SDS011;34426;52.180;4.462;2023-04-26T02:54:28;13.40;;;2.45;;
48629;SDS011;34426;52.180;4.462;2023-04-26T02:56:59;9.18;;;2.50;;
48629;SDS011;34426;52.180;4.462;2023-04-26T02:59:24;11.02;;;3.08;;
48629;SDS011;34426;52.180;4.462;2023-04-26T03:01:51;12.68;;;3.08;;
48629;SDS011;34426;52.180;4.462;2023-04-26T03:04:16;18.13;;;3.22;;
48629;SDS011;34426;52.180;4.462;2023-04-26T03:06:43;12.00;;;2.90;;
48629;SDS011;34426;52.180;4.462;2023-04-26T03:09:09;11.82;;;2.80;;
48629;SDS011;34426;52.180;4.462;2023-04-26T03:11:37;10.80;;;3.00;;
48629;SDS011;34426;52.180;4.462;2023-04-26T03:14:03;9.20;;;2.95;;
48629;SDS011;34426;52.180;4.462;2023-04-26T03:16:38;10.25;;;2.85;;
48629;SDS011;34426;52.180;4.462;2023-04-26T03:19:08;7.63;;;2.85;;
48629;SDS011;34426;52.180;4.462;2023-04-26T03:21:33;10.23;;;2.60;;
48629;SDS011;34426;52.180;4.462;2023-04-26T03:24:00;8.98;;;2.50;;
48629;SDS011;34426;52.180;4.462;2023-04-26T03:26:28;10.70;;;2.80;;
48629;SDS011;34426;52.180;4.462;2023-04-26T03:28:55;10.45;;;3.35;;
48629;SDS011;34426;52.180;4.462;2023-04-26T03:31:21;9.88;;;2.85;;
48629;SDS011;34426;52.180;4.462;2023-04-26T03:33:46;7.07;;;2.63;;
48629;SDS011;34426;52.180;4.462;2023-04-26T03:36:12;9.52;;;2.50;;
48629;SDS011;34426;52.180;4.462;2023-04-26T03:38:41;10.23;;;3.28;;
48629;SDS011;34426;52.180;4.462;2023-04-26T03:41:08;10.65;;;3.03;;
48629;SDS011;34426;52.180;4.462;2023-04-26T03:43:33;10.95;;;2.97;;
48629;SDS011;34426;52.180;4.462;2023-04-26T03:45:59;16.10;;;2.85;;
48629;SDS011;34426;52.180;4.462;2023-04-26T03:48:28;10.85;;;3.45;;
48629;SDS011;34426;52.180;4.462;2023-04-26T03:50:54;12.38;;;3.35;;
48629;SDS011;34426;52.180;4.462;2023-04-26T03:53:19;12.25;;;2.95;;
48629;SDS011;34426;52.180;4.462;2023-04-26T03:55:45;13.05;;;2.85;;
48629;SDS011;34426;52.180;4.462;2023-04-26T03:58:13;11.23;;;3.10;;
48629;SDS011;34426;52.180;4.462;2023-04-26T04:00:39;13.55;;;3.67;;
48629;SDS011;34426;52.180;4.462;2023-04-26T04:03:05;14.13;;;3.13;;
48629;SDS011;34426;52.180;4.462;2023-04-26T04:05:31;8.73;;;2.83;;
48629;SDS011;34426;52.180;4.462;2023-04-26T04:07:59;13.55;;;2.85;;
48629;SDS011;34426;52.180;4.462;2023-04-26T04:10:25;12.50;;;3.30;;
48629;SDS011;34426;52.180;4.462;2023-04-26T04:12:51;14.48;;;2.83;;
48629;SDS011;34426;52.180;4.462;2023-04-26T04:15:18;10.45;;;3.08;;
48629;SDS011;34426;52.180;4.462;2023-04-26T04:17:44;12.20;;;3.63;;
48629;SDS011;34426;52.180;4.462;2023-04-26T04:20:10;12.40;;;3.03;;
48629;SDS011;34426;52.180;4.462;2023-04-26T04:22:36;9.90;;;3.03;;
48629;SDS011;34426;52.180;4.462;2023-04-26T04:25:02;8.35;;;2.78;;
48629;SDS011;34426;52.180;4.462;2023-04-26T04:27:28;13.35;;;4.00;;
48629;SDS011;34426;52.180;4.462;2023-04-26T04:29:53;11.52;;;2.67;;
48629;SDS011;34426;52.180;4.462;2023-04-26T04:32:20;16.25;;;2.78;;
48629;SDS011;34426;52.180;4.462;2023-04-26T04:34:46;10.85;;;3.97;;
48629;SDS011;34426;52.180;4.462;2023-04-26T04:37:14;8.88;;;3.58;;
48629;SDS011;34426;52.180;4.462;2023-04-26T04:39:40;9.25;;;3.33;;
48629;SDS011;34426;52.180;4.462;2023-04-26T04:42:05;13.50;;;2.85;;
48629;SDS011;34426;52.180;4.462;2023-04-26T04:44:31;14.70;;;2.65;;
48629;SDS011;34426;52.180;4.462;2023-04-26T04:46:57;8.80;;;2.55;;
48629;SDS011;34426;52.180;4.462;2023-04-26T04:49:24;13.65;;;2.95;;
48629;SDS011;34426;52.180;4.462;2023-04-26T04:51:49;8.85;;;2.47;;
48629;SDS011;34426;52.180;4.462;2023-04-26T04:54:15;8.98;;;3.00;;
48629;SDS011;34426;52.180;4.462;2023-04-26T04:56:42;12.73;;;2.60;;
48629;SDS011;34426;52.180;4.462;2023-04-26T04:59:10;7.28;;;2.22;;
48629;SDS011;34426;52.180;4.462;2023-04-26T05:01:36;15.00;;;2.97;;
48629;SDS011;34426;52.180;4.462;2023-04-26T05:04:01;10.63;;;3.15;;
48629;SDS011;34426;52.180;4.462;2023-04-26T05:06:28;13.50;;;3.67;;
48629;SDS011;34426;52.180;4.462;2023-04-26T05:08:54;13.00;;;2.80;;
48629;SDS011;34426;52.180;4.462;2023-04-26T05:11:20;11.63;;;2.90;;
48629;SDS011;34426;52.180;4.462;2023-04-26T05:13:48;8.77;;;2.58;;
48629;SDS011;34426;52.180;4.462;2023-04-26T05:16:14;6.47;;;2.85;;
48629;SDS011;34426;52.180;4.462;2023-04-26T05:18:40;10.70;;;2.50;;
48629;SDS011;34426;52.180;4.462;2023-04-26T05:21:06;10.65;;;2.38;;
48629;SDS011;34426;52.180;4.462;2023-04-26T05:23:34;5.63;;;2.05;;
48629;SDS011;34426;52.180;4.462;2023-04-26T05:26:00;9.80;;;2.30;;
48629;SDS011;34426;52.180;4.462;2023-04-26T05:28:25;7.68;;;2.33;;
48629;SDS011;34426;52.180;4.462;2023-04-26T05:30:54;13.75;;;2.67;;
48629;SDS011;34426;52.180;4.462;2023-04-26T05:33:19;10.45;;;1.98;;
48629;SDS011;34426;52.180;4.462;2023-04-26T05:35:45;8.20;;;2.25;;
48629;SDS011;34426;52.180;4.462;2023-04-26T05:38:13;10.90;;;2.58;;
48629;SDS011;34426;52.180;4.462;2023-04-26T05:40:48;5.28;;;1.63;;
48629;SDS011;34426;52.180;4.462;2023-04-26T05:43:14;8.55;;;1.90;;
48629;SDS011;34426;52.180;4.462;2023-04-26T05:45:48;8.70;;;2.20;;
48629;SDS011;34426;52.180;4.462;2023-04-26T05:48:15;8.80;;;2.13;;
48629;SDS011;34426;52.180;4.462;2023-04-26T05:50:40;8.05;;;2.30;;
48629;SDS011;34426;52.180;4.462;2023-04-26T05:53:11;8.95;;;1.90;;
48629;SDS011;34426;52.180;4.462;2023-04-26T05:55:39;10.77;;;2.05;;
48629;SDS011;34426;52.180;4.462;2023-04-26T05:58:06;6.82;;;1.95;;
48629;SDS011;34426;52.180;4.462;2023-04-26T06:00:32;6.78;;;2.50;;
48629;SDS011;34426;52.180;4.462;2023-04-26T06:02:57;7.80;;;2.30;;
48629;SDS011;34426;52.180;4.462;2023-04-26T06:05:23;4.90;;;1.80;;
48629;SDS011;34426;52.180;4.462;2023-04-26T06:07:48;20.45;;;2.90;;
48629;SDS011;34426;52.180;4.462;2023-04-26T06:10:14;11.05;;;2.20;;
48629;SDS011;34426;52.180;4.462;2023-04-26T06:12:39;13.35;;;2.10;;
48629;SDS011;34426;52.180;4.462;2023-04-26T06:15:07;4.15;;;2.25;;
48629;SDS011;34426;52.180;4.462;2023-04-26T06:17:33;10.95;;;2.47;;
48629;SDS011;34426;52.180;4.462;2023-04-26T06:19:58;12.82;;;2.40;;
48629;SDS011;34426;52.180;4.462;2023-04-26T06:22:24;6.32;;;2.20;;
48629;SDS011;34426;52.180;4.462;2023-04-26T06:24:49;22.63;;;3.08;;
48629;SDS011;34426;52.180;4.462;2023-04-26T06:27:14;13.90;;;2.50;;
48629;SDS011;34426;52.180;4.462;2023-04-26T06:29:40;14.95;;;2.75;;
48629;SDS011;34426;52.180;4.462;2023-04-26T06:32:07;9.75;;;1.98;;
48629;SDS011;34426;52.180;4.462;2023-04-26T06:34:33;9.05;;;2.40;;
48629;SDS011;34426;52.180;4.462;2023-04-26T06:36:58;6.97;;;1.55;;
48629;SDS011;34426;52.180;4.462;2023-04-26T06:39:24;5.90;;;1.33;;
48629;SDS011;34426;52.180;4.462;2023-04-26T06:41:54;7.10;;;1.42;;
48629;SDS011;34426;52.180;4.462;2023-04-26T06:44:20;7.28;;;1.30;;
48629;SDS011;34426;52.180;4.462;2023-04-26T06:46:45;8.80;;;1.55;;
48629;SDS011;34426;52.180;4.462;2023-04-26T06:49:12;5.55;;;1.23;;
48629;SDS011;34426;52.180;4.462;2023-04-26T06:51:38;7.00;;;1.60;;
48629;SDS011;34426;52.180;4.462;2023-04-26T06:54:03;4.78;;;1.60;;
48629;SDS011;34426;52.180;4.462;2023-04-26T06:56:29;7.10;;;1.20;;
48629;SDS011;34426;52.180;4.462;2023-04-26T06:58:58;5.97;;;1.50;;
48629;SDS011;34426;52.180;4.462;2023-04-26T07:01:25;8.25;;;1.40;;
48629;SDS011;34426;52.180;4.462;2023-04-26T07:03:57;11.65;;;2.13;;
48629;SDS011;34426;52.180;4.462;2023-04-26T07:06:24;6.82;;;1.45;;
48629;SDS011;34426;52.180;4.462;2023-04-26T07:08:50;6.63;;;1.20;;
48629;SDS011;34426;52.180;4.462;2023-04-26T07:11:16;4.32;;;1.48;;
48629;SDS011;34426;52.180;4.462;2023-04-26T07:13:44;10.95;;;1.52;;
48629;SDS011;34426;52.180;4.462;2023-04-26T07:16:10;5.25;;;1.83;;
48629;SDS011;34426;52.180;4.462;2023-04-26T07:18:38;17.65;;;1.85;;
48629;SDS011;34426;52.180;4.462;2023-04-26T07:21:03;8.52;;;1.55;;
48629;SDS011;34426;52.180;4.462;2023-04-26T07:23:30;5.88;;;1.15;;
48629;SDS011;34426;52.180;4.462;2023-04-26T07:25:59;11.32;;;1.67;;
48629;SDS011;34426;52.180;4.462;2023-04-26T07:28:24;3.55;;;1.27;;
48629;SDS011;34426;52.180;4.462;2023-04-26T07:30:50;4.55;;;1.15;;
48629;SDS011;34426;52.180;4.462;2023-04-26T07:33:16;12.63;;;1.50;;
48629;SDS011;34426;52.180;4.462;2023-04-26T07:35:52;7.80;;;1.15;;
48629;SDS011;34426;52.180;4.462;2023-04-26T07:38:18;4.80;;;0.98;;
48629;SDS011;34426;52.180;4.462;2023-04-26T07:40:45;6.03;;;1.20;;
48629;SDS011;34426;52.180;4.462;2023-04-26T07:43:10;11.48;;;1.95;;
48629;SDS011;34426;52.180;4.462;2023-04-26T07:45:36;9.15;;;1.50;;
48629;SDS011;34426;52.180;4.462;2023-04-26T07:48:03;7.43;;;1.80;;
48629;SDS011;34426;52.180;4.462;2023-04-26T07:50:29;7.43;;;1.27;;
48629;SDS011;34426;52.180;4.462;2023-04-26T07:52:54;7.32;;;1.38;;
48629;SDS011;34426;52.180;4.462;2023-04-26T07:55:20;6.45;;;1.40;;
48629;SDS011;34426;52.180;4.462;2023-04-26T07:57:47;7.22;;;1.48;;
48629;SDS011;34426;52.180;4.462;2023-04-26T08:00:13;6.55;;;1.55;;
48629;SDS011;34426;52.180;4.462;2023-04-26T08:02:39;12.38;;;1.60;;
48629;SDS011;34426;52.180;4.462;2023-04-26T08:05:04;11.30;;;1.27;;
48629;SDS011;34426;52.180;4.462;2023-04-26T08:07:30;3.75;;;0.90;;
48629;SDS011;34426;52.180;4.462;2023-04-26T08:09:58;6.47;;;1.10;;
48629;SDS011;34426;52.180;4.462;2023-04-26T08:12:24;5.30;;;0.80;;
48629;SDS011;34426;52.180;4.462;2023-04-26T08:14:53;8.73;;;1.25;;
48629;SDS011;34426;52.180;4.462;2023-04-26T08:17:19;10.23;;;1.20;;
48629;SDS011;34426;52.180;4.462;2023-04-26T08:19:44;7.20;;;1.08;;
48629;SDS011;34426;52.180;4.462;2023-04-26T08:22:09;7.57;;;1.02;;
48629;SDS011;34426;52.180;4.462;2023-04-26T08:24:35;10.43;;;1.17;;
48629;SDS011;34426;52.180;4.462;2023-04-26T08:27:00;10.63;;;1.52;;
48629;SDS011;34426;52.180;4.462;2023-04-26T08:29:29;8.23;;;1.33;;
48629;SDS011;34426;52.180;4.462;2023-04-26T08:31:57;4.68;;;1.20;;
48629;SDS011;34426;52.180;4.462;2023-04-26T08:34:22;7.30;;;1.50;;
48629;SDS011;34426;52.180;4.462;2023-04-26T08:36:48;9.40;;;1.27;;
48629;SDS011;34426;52.180;4.462;2023-04-26T08:39:14;4.72;;;1.83;;
48629;SDS011;34426;52.180;4.462;2023-04-26T08:41:41;3.67;;;1.10;;
48629;SDS011;34426;52.180;4.462;2023-04-26T08:44:14;9.00;;;2.10;;
48629;SDS011;34426;52.180;4.462;2023-04-26T08:46:40;5.30;;;1.30;;
48629;SDS011;34426;52.180;4.462;2023-04-26T08:49:15;6.95;;;1.30;;
48629;SDS011;34426;52.180;4.462;2023-04-26T08:51:50;8.43;;;1.50;;
48629;SDS011;34426;52.180;4.462;2023-04-26T08:54:17;6.70;;;1.25;;
48629;SDS011;34426;52.180;4.462;2023-04-26T08:56:44;8.30;;;1.20;;
48629;SDS011;34426;52.180;4.462;2023-04-26T08:59:11;9.07;;;1.60;;
48629;SDS011;34426;52.180;4.462;2023-04-26T09:01:38;5.68;;;1.63;;
48629;SDS011;34426;52.180;4.462;2023-04-26T09:04:10;11.32;;;1.50;;
48629;SDS011;34426;52.180;4.462;2023-04-26T09:06:38;4.30;;;1.00;;
48629;SDS011;34426;52.180;4.462;2023-04-26T09:09:06;5.10;;;1.33;;
48629;SDS011;34426;52.180;4.462;2023-04-26T09:11:53;2.92;;;0.95;;
48629;SDS011;34426;52.180;4.462;2023-04-26T09:14:21;6.53;;;1.70;;
48629;SDS011;34426;52.180;4.462;2023-04-26T09:16:46;8.63;;;1.20;;
48629;SDS011;34426;52.180;4.462;2023-04-26T09:19:12;5.55;;;1.30;;
48629;SDS011;34426;52.180;4.462;2023-04-26T09:21:41;9.23;;;1.35;;
48629;SDS011;34426;52.180;4.462;2023-04-26T09:24:10;7.80;;;1.80;;
48629;SDS011;34426;52.180;4.462;2023-04-26T09:26:40;4.55;;;1.10;;
48629;SDS011;34426;52.180;4.462;2023-04-26T09:29:12;8.77;;;1.50;;
48629;SDS011;34426;52.180;4.462;2023-04-26T09:31:38;5.07;;;1.42;;
48629;SDS011;34426;52.180;4.462;2023-04-26T09:34:05;4.55;;;1.10;;
48629;SDS011;34426;52.180;4.462;2023-04-26T09:36:31;10.70;;;1.02;;
48629;SDS011;34426;52.180;4.462;2023-04-26T09:38:58;5.22;;;1.17;;
48629;SDS011;34426;52.180;4.462;2023-04-26T09:41:25;3.28;;;1.00;;
48629;SDS011;34426;52.180;4.462;2023-04-26T09:44:19;6.70;;;1.38;;
48629;SDS011;34426;52.180;4.462;2023-04-26T09:46:55;6.13;;;1.00;;
48629;SDS011;34426;52.180;4.462;2023-04-26T09:49:24;5.75;;;1.10;;
48629;SDS011;34426;52.180;4.462;2023-04-26T09:51:58;8.43;;;1.02;;
48629;SDS011;34426;52.180;4.462;2023-04-26T09:54:32;2.25;;;0.90;;
48629;SDS011;34426;52.180;4.462;2023-04-26T09:57:05;3.53;;;0.85;;
48629;SDS011;34426;52.180;4.462;2023-04-26T09:59:39;4.75;;;1.25;;
48629;SDS011;34426;52.180;4.462;2023-04-26T10:02:13;5.18;;;1.10;;
48629;SDS011;34426;52.180;4.462;2023-04-26T10:04:40;8.52;;;1.10;;
48629;SDS011;34426;52.180;4.462;2023-04-26T10:07:14;7.90;;;1.48;;
48629;SDS011;34426;52.180;4.462;2023-04-26T10:09:42;3.40;;;0.93;;
48629;SDS011;34426;52.180;4.462;2023-04-26T10:12:09;6.45;;;1.92;;
48629;SDS011;34426;52.180;4.462;2023-04-26T10:14:35;5.20;;;1.02;;
48629;SDS011;34426;52.180;4.462;2023-04-26T10:17:01;6.32;;;1.00;;
48629;SDS011;34426;52.180;4.462;2023-04-26T10:19:27;6.88;;;1.25;;
48629;SDS011;34426;52.180;4.462;2023-04-26T10:21:53;8.73;;;1.25;;
48629;SDS011;34426;52.180;4.462;2023-04-26T10:24:24;4.45;;;1.45;;
48629;SDS011;34426;52.180;4.462;2023-04-26T10:26:56;6.38;;;1.38;;
48629;SDS011;34426;52.180;4.462;2023-04-26T10:29:22;8.75;;;1.27;;
48629;SDS011;34426;52.180;4.462;2023-04-26T10:32:05;9.27;;;1.58;;
48629;SDS011;34426;52.180;4.462;2023-04-26T10:34:32;4.65;;;1.55;;
48629;SDS011;34426;52.180;4.462;2023-04-26T10:37:05;6.95;;;1.80;;
48629;SDS011;34426;52.180;4.462;2023-04-26T10:39:33;6.10;;;1.15;;
48629;SDS011;34426;52.180;4.462;2023-04-26T10:42:20;4.53;;;1.27;;
48629;SDS011;34426;52.180;4.462;2023-04-26T10:44:47;2.83;;;1.02;;
48629;SDS011;34426;52.180;4.462;2023-04-26T10:47:23;5.65;;;1.20;;
48629;SDS011;34426;52.180;4.462;2023-04-26T10:50:00;3.45;;;1.13;;
48629;SDS011;34426;52.180;4.462;2023-04-26T10:52:30;3.42;;;1.30;;
48629;SDS011;34426;52.180;4.462;2023-04-26T10:54:56;7.70;;;1.42;;
48629;SDS011;34426;52.180;4.462;2023-04-26T11:00:16;7.07;;;1.45;;
48629;SDS011;34426;52.180;4.462;2023-04-26T11:02:43;10.50;;;1.48;;
48629;SDS011;34426;52.180;4.462;2023-04-26T11:05:09;5.25;;;1.90;;
48629;SDS011;34426;52.180;4.462;2023-04-26T11:07:35;6.22;;;1.30;;
48629;SDS011;34426;52.180;4.462;2023-04-26T11:10:01;8.68;;;1.58;;
48629;SDS011;34426;52.180;4.462;2023-04-26T11:12:26;6.32;;;1.15;;
48629;SDS011;34426;52.180;4.462;2023-04-26T11:14:53;3.03;;;1.02;;
48629;SDS011;34426;52.180;4.462;2023-04-26T11:17:19;6.00;;;1.75;;
48629;SDS011;34426;52.180;4.462;2023-04-26T11:19:45;8.18;;;2.15;;
48629;SDS011;34426;52.180;4.462;2023-04-26T11:22:10;3.72;;;1.00;;
48629;SDS011;34426;52.180;4.462;2023-04-26T11:24:36;7.63;;;1.35;;
48629;SDS011;34426;52.180;4.462;2023-04-26T11:27:08;3.67;;;1.08;;
48629;SDS011;34426;52.180;4.462;2023-04-26T11:29:34;6.22;;;1.10;;
48629;SDS011;34426;52.180;4.462;2023-04-26T11:32:02;7.05;;;1.13;;
48629;SDS011;34426;52.180;4.462;2023-04-26T11:34:30;6.57;;;1.08;;
48629;SDS011;34426;52.180;4.462;2023-04-26T11:36:55;4.63;;;1.20;;
48629;SDS011;34426;52.180;4.462;2023-04-26T11:39:21;9.98;;;1.33;;
48629;SDS011;34426;52.180;4.462;2023-04-26T11:41:50;5.40;;;1.05;;
48629;SDS011;34426;52.180;4.462;2023-04-26T11:44:18;3.70;;;0.90;;
48629;SDS011;34426;52.180;4.462;2023-04-26T11:46:44;8.35;;;1.35;;
48629;SDS011;34426;52.180;4.462;2023-04-26T11:49:15;5.10;;;1.40;;
48629;SDS011;34426;52.180;4.462;2023-04-26T11:51:41;6.15;;;1.15;;
48629;SDS011;34426;52.180;4.462;2023-04-26T11:54:08;4.97;;;1.10;;
48629;SDS011;34426;52.180;4.462;2023-04-26T11:56:34;8.02;;;2.30;;
48629;SDS011;34426;52.180;4.462;2023-04-26T11:59:00;4.80;;;1.20;;
48629;SDS011;34426;52.180;4.462;2023-04-26T12:01:26;4.78;;;1.05;;
48629;SDS011;34426;52.180;4.462;2023-04-26T12:03:53;5.80;;;1.27;;
48629;SDS011;34426;52.180;4.462;2023-04-26T12:06:24;7.47;;;1.20;;
48629;SDS011;34426;52.180;4.462;2023-04-26T12:09:05;6.43;;;1.33;;
48629;SDS011;34426;52.180;4.462;2023-04-26T12:11:31;3.60;;;0.98;;
48629;SDS011;34426;52.180;4.462;2023-04-26T12:13:57;1.92;;;0.82;;
48629;SDS011;34426;52.180;4.462;2023-04-26T12:16:22;3.83;;;1.05;;
48629;SDS011;34426;52.180;4.462;2023-04-26T12:18:49;4.28;;;0.93;;
48629;SDS011;34426;52.180;4.462;2023-04-26T12:21:15;7.20;;;1.63;;
48629;SDS011;34426;52.180;4.462;2023-04-26T12:23:42;4.25;;;1.08;;
48629;SDS011;34426;52.180;4.462;2023-04-26T12:26:08;4.55;;;1.45;;
48629;SDS011;34426;52.180;4.462;2023-04-26T12:28:39;5.53;;;1.23;;
48629;SDS011;34426;52.180;4.462;2023-04-26T12:31:04;5.30;;;1.10;;
48629;SDS011;34426;52.180;4.462;2023-04-26T12:33:32;6.32;;;1.00;;
48629;SDS011;34426;52.180;4.462;2023-04-26T12:35:57;3.33;;;1.05;;
48629;SDS011;34426;52.180;4.462;2023-04-26T12:38:29;3.97;;;1.10;;
48629;SDS011;34426;52.180;4.462;2023-04-26T12:40:56;4.88;;;1.15;;
48629;SDS011;34426;52.180;4.462;2023-04-26T12:43:22;9.73;;;1.00;;
48629;SDS011;34426;52.180;4.462;2023-04-26T12:45:51;5.85;;;1.67;;
48629;SDS011;34426;52.180;4.462;2023-04-26T12:48:16;9.57;;;1.27;;
48629;SDS011;34426;52.180;4.462;2023-04-26T12:50:42;2.75;;;1.20;;
48629;SDS011;34426;52.180;4.462;2023-04-26T12:53:07;8.50;;;1.20;;
48629;SDS011;34426;52.180;4.462;2023-04-26T12:55:33;4.85;;;1.00;;
48629;SDS011;34426;52.180;4.462;2023-04-26T12:58:00;5.63;;;1.17;;
48629;SDS011;34426;52.180;4.462;2023-04-26T13:00:31;4.90;;;1.17;;
48629;SDS011;34426;52.180;4.462;2023-04-26T13:02:57;7.18;;;1.08;;
48629;SDS011;34426;52.180;4.462;2023-04-26T13:05:23;4.15;;;1.10;;
48629;SDS011;34426;52.180;4.462;2023-04-26T13:07:49;6.20;;;1.20;;
48629;SDS011;34426;52.180;4.462;2023-04-26T13:10:15;5.20;;;1.17;;
48629;SDS011;34426;52.180;4.462;2023-04-26T13:12:43;6.75;;;1.02;;
48629;SDS011;34426;52.180;4.462;2023-04-26T13:15:11;4.47;;;1.42;;
48629;SDS011;34426;52.180;4.462;2023-04-26T13:17:42;4.57;;;1.45;;
48629;SDS011;34426;52.180;4.462;2023-04-26T13:20:09;4.07;;;1.23;;
48629;SDS011;34426;52.180;4.462;2023-04-26T13:22:41;7.38;;;1.20;;
48629;SDS011;34426;52.180;4.462;2023-04-26T13:25:07;3.55;;;1.00;;
48629;SDS011;34426;52.180;4.462;2023-04-26T13:27:33;5.65;;;1.60;;
48629;SDS011;34426;52.180;4.462;2023-04-26T13:29:58;5.18;;;1.30;;
48629;SDS011;34426;52.180;4.462;2023-04-26T13:32:25;7.28;;;1.30;;
48629;SDS011;34426;52.180;4.462;2023-04-26T13:34:51;8.43;;;1.33;;
48629;SDS011;34426;52.180;4.462;2023-04-26T13:37:17;4.25;;;1.20;;
48629;SDS011;34426;52.180;4.462;2023-04-26T13:39:44;11.93;;;1.55;;
48629;SDS011;34426;52.180;4.462;2023-04-26T13:42:17;4.88;;;1.15;;
48629;SDS011;34426;52.180;4.462;2023-04-26T13:44:43;4.15;;;1.35;;
48629;SDS011;34426;52.180;4.462;2023-04-26T13:47:14;4.38;;;1.10;;
48629;SDS011;34426;52.180;4.462;2023-04-26T13:49:41;7.32;;;1.48;;
48629;SDS011;34426;52.180;4.462;2023-04-26T13:52:07;3.08;;;1.13;;
48629;SDS011;34426;52.180;4.462;2023-04-26T13:54:33;6.47;;;1.27;;
48629;SDS011;34426;52.180;4.462;2023-04-26T13:56:59;4.00;;;1.20;;
48629;SDS011;34426;52.180;4.462;2023-04-26T13:59:24;3.50;;;1.15;;
48629;SDS011;34426;52.180;4.462;2023-04-26T14:01:50;14.25;;;1.48;;
48629;SDS011;34426;52.180;4.462;2023-04-26T14:04:24;7.57;;;1.80;;
48629;SDS011;34426;52.180;4.462;2023-04-26T14:06:51;5.22;;;1.30;;
48629;SDS011;34426;52.180;4.462;2023-04-26T14:09:17;8.18;;;2.40;;
48629;SDS011;34426;52.180;4.462;2023-04-26T14:11:43;4.05;;;1.38;;
48629;SDS011;34426;52.180;4.462;2023-04-26T14:14:09;6.20;;;1.05;;
48629;SDS011;34426;52.180;4.462;2023-04-26T14:16:35;8.35;;;1.50;;
48629;SDS011;34426;52.180;4.462;2023-04-26T14:19:00;9.68;;;1.80;;
48629;SDS011;34426;52.180;4.462;2023-04-26T14:21:26;7.70;;;1.67;;
48629;SDS011;34426;52.180;4.462;2023-04-26T14:23:58;8.18;;;1.88;;
48629;SDS011;34426;52.180;4.462;2023-04-26T14:26:24;5.25;;;1.40;;
48629;SDS011;34426;52.180;4.462;2023-04-26T14:28:50;7.30;;;1.70;;
48629;SDS011;34426;52.180;4.462;2023-04-26T14:31:15;3.78;;;1.33;;
48629;SDS011;34426;52.180;4.462;2023-04-26T14:33:44;10.15;;;1.80;;
48629;SDS011;34426;52.180;4.462;2023-04-26T14:36:15;7.30;;;1.20;;
48629;SDS011;34426;52.180;4.462;2023-04-26T14:38:44;7.35;;;2.08;;
48629;SDS011;34426;52.180;4.462;2023-04-26T14:41:14;5.82;;;1.58;;
48629;SDS011;34426;52.180;4.462;2023-04-26T14:43:39;8.32;;;1.48;;
48629;SDS011;34426;52.180;4.462;2023-04-26T14:46:07;7.25;;;1.30;;